createdAt,value
2023-03-06T00:00:25.052Z,22.20
2023-03-06T00:02:52.388Z,20.00
2023-03-06T00:05:19.702Z,22.05
2023-03-06T00:07:46.598Z,19.50
2023-03-06T00:10:21.416Z,20.55
2023-03-06T00:12:48.143Z,21.27
2023-03-06T00:15:15.193Z,18.17
2023-03-06T00:17:41.879Z,19.75
2023-03-06T00:20:11.158Z,20.58
2023-03-06T00:22:38.297Z,21.70
2023-03-06T00:25:05.976Z,19.77
2023-03-06T00:27:33.219Z,20.25
2023-03-06T00:30:01.442Z,19.92
2023-03-06T00:32:29.162Z,19.00
2023-03-06T00:34:56.307Z,21.65
2023-03-06T00:37:24.860Z,21.10
2023-03-06T00:39:51.487Z,21.25
2023-03-06T00:42:19.270Z,22.40
2023-03-06T00:44:46.595Z,19.42
2023-03-06T00:47:13.970Z,20.05
2023-03-06T00:49:40.513Z,20.73
2023-03-06T00:52:07.240Z,19.25
2023-03-06T00:54:33.899Z,18.95
2023-03-06T00:57:00.597Z,23.45
2023-03-06T00:59:28.038Z,20.77
2023-03-06T01:01:55.220Z,21.33
2023-03-06T01:04:22.423Z,22.77
2023-03-06T01:06:49.249Z,23.20
2023-03-06T01:09:15.978Z,23.50
2023-03-06T01:11:42.770Z,23.38
2023-03-06T01:14:09.486Z,23.08
2023-03-06T01:16:36.161Z,23.52
2023-03-06T01:19:03.032Z,23.58
2023-03-06T01:21:29.768Z,21.52
2023-03-06T01:23:56.717Z,24.73
2023-03-06T01:26:23.504Z,23.10
2023-03-06T01:28:50.155Z,23.77
2023-03-06T01:31:16.792Z,22.88
2023-03-06T01:33:43.536Z,25.85
2023-03-06T01:36:12.308Z,25.67
2023-03-06T01:38:39.218Z,25.38
2023-03-06T01:41:06.251Z,24.45
2023-03-06T01:43:38.047Z,27.80
2023-03-06T01:46:34.137Z,24.13
2023-03-06T01:49:25.951Z,23.52
2023-03-06T01:52:14.720Z,28.02
2023-03-06T01:54:53.694Z,24.80
2023-03-06T01:57:31.478Z,23.63
2023-03-06T02:00:14.240Z,28.33
2023-03-06T02:02:42.919Z,27.33
2023-03-06T02:05:10.379Z,24.90
2023-03-06T02:07:38.020Z,28.08
2023-03-06T02:10:06.015Z,28.90
2023-03-06T02:12:32.964Z,28.08
2023-03-06T02:14:59.685Z,26.48
2023-03-06T02:17:27.070Z,29.42
2023-03-06T02:20:24.431Z,27.38
2023-03-06T02:23:28.636Z,30.13
2023-03-06T02:25:56.066Z,32.63
2023-03-06T02:28:23.980Z,27.38
2023-03-06T02:30:52.821Z,28.67
2023-03-06T02:33:22.359Z,27.13
2023-03-06T02:36:00.568Z,29.92
2023-03-06T02:38:37.705Z,30.58
2023-03-06T02:41:06.022Z,29.77
2023-03-06T02:43:38.346Z,26.75
2023-03-06T02:46:06.068Z,29.15
2023-03-06T02:48:32.816Z,30.13
2023-03-06T02:50:59.438Z,28.30
2023-03-06T02:53:26.191Z,30.58
2023-03-06T02:55:52.948Z,27.02
2023-03-06T02:58:21.180Z,27.35
2023-03-06T03:00:48.757Z,28.67
2023-03-06T03:03:15.526Z,31.27
2023-03-06T03:05:42.294Z,26.45
2023-03-06T03:08:08.975Z,29.13
2023-03-06T03:10:35.591Z,27.70
2023-03-06T03:13:02.333Z,27.90
2023-03-06T03:15:29.077Z,31.90
2023-03-06T03:17:55.851Z,29.35
2023-03-06T03:20:22.996Z,30.42
2023-03-06T03:22:51.130Z,29.75
2023-03-06T03:25:18.555Z,29.65
2023-03-06T03:27:45.473Z,29.08
2023-03-06T03:30:12.612Z,30.73
2023-03-06T03:32:39.279Z,26.27
2023-03-06T03:35:07.621Z,33.28
2023-03-06T03:37:35.196Z,31.30
2023-03-06T03:40:02.106Z,29.38
2023-03-06T03:42:28.946Z,26.63
2023-03-06T03:44:55.519Z,30.42
2023-03-06T03:47:22.143Z,30.90
2023-03-06T03:49:48.788Z,29.48
2023-03-06T03:52:15.501Z,31.27
2023-03-06T03:54:42.164Z,30.55
2023-03-06T03:57:08.917Z,27.63
2023-03-06T03:59:35.548Z,25.65
2023-03-06T04:02:05.021Z,25.90
2023-03-06T04:04:33.853Z,29.88
2023-03-06T04:07:01.003Z,31.88
2023-03-06T04:09:27.735Z,29.27
2023-03-06T04:11:54.443Z,27.75
2023-03-06T04:14:22.555Z,28.63
2023-03-06T04:16:49.223Z,27.27
2023-03-06T04:19:15.989Z,28.65
2023-03-06T04:21:42.676Z,34.60
2023-03-06T04:24:09.340Z,33.67
2023-03-06T04:26:36.309Z,35.65
2023-03-06T04:29:02.968Z,33.70
2023-03-06T04:31:29.890Z,34.03
2023-03-06T04:33:56.659Z,28.70
2023-03-06T04:36:31.600Z,29.77
2023-03-06T04:38:58.385Z,33.65
2023-03-06T04:41:25.340Z,34.08
2023-03-06T04:43:52.453Z,32.63
2023-03-06T04:46:19.145Z,32.75
2023-03-06T04:48:45.808Z,33.55
2023-03-06T04:51:13.602Z,30.45
2023-03-06T04:53:40.282Z,31.27
2023-03-06T04:56:07.473Z,39.08
2023-03-06T04:58:34.077Z,34.92
2023-03-06T05:01:02.471Z,31.23
2023-03-06T05:03:29.513Z,32.95
2023-03-06T05:05:56.187Z,33.38
2023-03-06T05:08:23.902Z,34.35
2023-03-06T05:10:56.508Z,32.28
2023-03-06T05:13:23.217Z,33.88
2023-03-06T05:15:49.837Z,37.10
2023-03-06T05:18:17.043Z,33.70
2023-03-06T05:20:43.806Z,33.00
2023-03-06T05:23:10.831Z,33.60
2023-03-06T05:25:40.939Z,34.63
2023-03-06T05:28:08.856Z,29.52
2023-03-06T05:30:35.926Z,31.63
2023-03-06T05:33:02.579Z,33.17
2023-03-06T05:35:29.308Z,35.95
2023-03-06T05:37:56.673Z,33.60
2023-03-06T05:40:23.246Z,35.30
2023-03-06T05:42:50.226Z,33.00
2023-03-06T05:45:16.861Z,33.95
2023-03-06T05:47:43.529Z,40.08
2023-03-06T05:50:11.291Z,34.50
2023-03-06T05:52:39.864Z,33.08
2023-03-06T05:55:10.087Z,33.97
2023-03-06T05:57:36.783Z,32.05
2023-03-06T06:00:04.126Z,34.38
2023-03-06T06:02:30.860Z,33.13
2023-03-06T06:04:57.687Z,35.72
2023-03-06T06:07:24.307Z,38.00
2023-03-06T06:09:53.496Z,35.15
2023-03-06T06:12:20.222Z,36.13
2023-03-06T06:14:46.863Z,33.30
2023-03-06T06:17:13.510Z,31.45
2023-03-06T06:19:40.110Z,34.63
2023-03-06T06:22:07.164Z,38.13
2023-03-06T06:24:33.917Z,35.47
2023-03-06T06:27:03.400Z,40.08
2023-03-06T06:29:30.589Z,41.00
2023-03-06T06:31:58.165Z,41.90
2023-03-06T06:34:25.656Z,39.20
2023-03-06T06:36:53.759Z,35.75
2023-03-06T06:39:22.991Z,35.63
2023-03-06T06:42:02.640Z,37.65
2023-03-06T06:44:32.487Z,36.92
2023-03-06T06:49:50.564Z,32.60
2023-03-06T06:52:19.017Z,39.80
2023-03-06T06:54:45.849Z,38.95
2023-03-06T06:57:12.794Z,33.33
2023-03-06T06:59:39.470Z,33.35
2023-03-06T07:02:06.325Z,32.05
2023-03-06T07:04:33.492Z,29.85
2023-03-06T07:07:01.660Z,33.17
2023-03-06T07:09:30.459Z,32.50
2023-03-06T07:11:57.564Z,31.98
2023-03-06T07:14:24.735Z,29.02
2023-03-06T07:16:51.437Z,33.40
2023-03-06T07:19:18.304Z,30.33
2023-03-06T07:21:45.028Z,28.73
2023-03-06T07:24:11.731Z,29.85
2023-03-06T07:26:38.493Z,28.10
2023-03-06T07:29:05.218Z,29.08
2023-03-06T07:31:32.390Z,28.77
2023-03-06T07:33:59.069Z,28.23
2023-03-06T07:36:25.701Z,26.90
2023-03-06T07:38:52.277Z,27.77
2023-03-06T07:41:22.212Z,26.10
2023-03-06T07:43:49.913Z,27.50
2023-03-06T07:46:17.298Z,23.80
2023-03-06T07:48:44.812Z,26.50
2023-03-06T07:51:19.709Z,27.25
2023-03-06T07:53:47.591Z,25.73
2023-03-06T07:56:14.418Z,26.70
2023-03-06T07:58:43.441Z,26.30
2023-03-06T08:01:13.064Z,24.73
2023-03-06T08:03:39.971Z,27.35
2023-03-06T08:06:17.854Z,28.48
2023-03-06T08:08:46.133Z,27.58
2023-03-06T08:11:15.302Z,26.60
2023-03-06T08:13:42.533Z,29.48
2023-03-06T08:16:09.876Z,22.52
2023-03-06T08:18:38.285Z,23.70
2023-03-06T08:21:13.141Z,23.33
2023-03-06T08:23:40.628Z,24.02
2023-03-06T08:26:11.079Z,21.73
2023-03-06T08:28:37.771Z,23.05
2023-03-06T08:31:21.784Z,19.38
2023-03-06T08:33:48.459Z,24.40
2023-03-06T08:36:15.447Z,24.75
2023-03-06T08:38:42.127Z,22.27
2023-03-06T08:41:08.951Z,22.58
2023-03-06T08:43:36.024Z,22.17
2023-03-06T08:46:02.991Z,20.10
2023-03-06T08:48:29.785Z,22.17
2023-03-06T08:50:56.487Z,21.13
2023-03-06T08:53:33.462Z,21.42
2023-03-06T08:56:08.804Z,20.63
2023-03-06T08:58:35.459Z,21.77
2023-03-06T09:01:03.893Z,22.52
2023-03-06T09:03:30.779Z,21.77
2023-03-06T09:05:57.496Z,22.70
2023-03-06T09:08:24.184Z,21.45
2023-03-06T09:10:50.953Z,21.92
2023-03-06T09:13:17.532Z,25.30
2023-03-06T09:15:44.176Z,21.88
2023-03-06T09:18:10.756Z,20.17
2023-03-06T09:20:37.422Z,20.52
2023-03-06T09:23:04.038Z,23.27
2023-03-06T09:25:31.308Z,23.15
2023-03-06T09:28:10.987Z,22.00
2023-03-06T09:30:40.633Z,22.50
2023-03-06T09:33:07.499Z,23.30
2023-03-06T09:35:34.142Z,21.42
2023-03-06T09:38:00.789Z,19.48
2023-03-06T09:40:42.873Z,20.20
2023-03-06T09:43:19.033Z,19.17
2023-03-06T09:45:45.858Z,18.95
2023-03-06T09:48:16.625Z,17.08
2023-03-06T09:50:53.277Z,17.55
2023-03-06T09:53:49.915Z,18.42
2023-03-06T09:56:20.395Z,18.48
2023-03-06T09:58:54.411Z,15.68
2023-03-06T10:01:25.278Z,15.90
2023-03-06T10:04:12.371Z,16.13
2023-03-06T10:06:48.622Z,14.60
2023-03-06T10:09:38.746Z,15.95
2023-03-06T10:12:24.301Z,17.52
2023-03-06T10:15:08.003Z,17.10
2023-03-06T10:17:38.051Z,16.42
2023-03-06T10:20:44.254Z,14.52
2023-03-06T10:23:47.011Z,16.90
2023-03-06T10:26:17.422Z,13.82
2023-03-06T10:28:54.468Z,16.30
2023-03-06T10:31:27.368Z,16.27
2023-03-06T10:34:43.810Z,17.20
2023-03-06T10:37:20.656Z,16.60
2023-03-06T10:39:52.693Z,14.98
2023-03-06T10:42:19.266Z,15.32
2023-03-06T10:44:46.144Z,17.38
2023-03-06T10:47:30.187Z,14.27
2023-03-06T10:49:59.609Z,13.85
2023-03-06T10:52:29.531Z,12.88
2023-03-06T10:55:24.056Z,13.15
2023-03-06T10:57:50.762Z,14.57
2023-03-06T11:00:29.780Z,11.82
2023-03-06T11:03:18.473Z,10.85
2023-03-06T11:05:56.496Z,12.50
2023-03-06T11:08:23.249Z,12.57
2023-03-06T11:10:58.265Z,12.13
2023-03-06T11:13:27.553Z,10.55
2023-03-06T11:16:19.703Z,11.25
2023-03-06T11:18:59.359Z,10.93
2023-03-06T11:21:32.104Z,13.73
2023-03-06T11:24:06.627Z,13.07
2023-03-06T11:26:38.145Z,12.18
2023-03-06T11:29:12.472Z,11.68
2023-03-06T11:31:45.003Z,12.15
2023-03-06T11:34:24.324Z,11.55
2023-03-06T11:37:16.967Z,11.57
2023-03-06T11:39:49.564Z,12.35
2023-03-06T11:42:20.632Z,11.60
2023-03-06T11:45:10.330Z,13.05
2023-03-06T11:47:54.668Z,11.38
2023-03-06T11:50:46.734Z,12.30
2023-03-06T11:53:15.926Z,12.43
2023-03-06T11:56:15.075Z,14.13
2023-03-06T11:59:01.330Z,12.63
2023-03-06T12:01:38.871Z,14.15
2023-03-06T12:04:39.620Z,14.02
2023-03-06T12:07:17.628Z,16.20
2023-03-06T12:13:50.159Z,14.88
2023-03-06T12:17:00.036Z,17.80
2023-03-06T12:19:31.152Z,16.83
2023-03-06T12:22:09.538Z,14.38
2023-03-06T12:25:22.913Z,13.80
2023-03-06T12:28:18.748Z,15.52
2023-03-06T12:31:25.054Z,16.65
2023-03-06T12:34:13.015Z,18.63
2023-03-06T12:37:02.571Z,17.23
2023-03-06T12:40:01.869Z,18.05
2023-03-06T12:42:48.319Z,17.05
2023-03-06T12:45:25.956Z,15.93
2023-03-06T12:47:56.698Z,14.23
2023-03-06T12:50:29.003Z,14.90
2023-03-06T12:52:58.920Z,14.85
2023-03-06T12:55:26.228Z,14.13
2023-03-06T12:57:54.047Z,16.08
2023-03-06T13:00:58.755Z,16.65
2023-03-06T13:03:54.650Z,15.88
2023-03-06T13:07:01.960Z,14.98
2023-03-06T13:10:05.012Z,17.20
2023-03-06T13:12:51.763Z,17.40
2023-03-06T13:15:41.622Z,17.15
2023-03-06T13:22:03.699Z,17.45
2023-03-06T13:24:35.741Z,15.55
2023-03-06T13:27:45.770Z,16.98
2023-03-06T13:30:43.591Z,13.32
2023-03-06T13:33:52.551Z,18.25
2023-03-06T13:36:30.619Z,15.80
2023-03-06T13:38:59.550Z,18.95
2023-03-06T13:41:33.312Z,17.00
2023-03-06T13:44:01.970Z,17.88
2023-03-06T13:46:31.531Z,17.05
2023-03-06T13:49:13.282Z,20.70
2023-03-06T13:52:09.474Z,17.83
2023-03-06T13:55:14.182Z,22.60
2023-03-06T13:58:10.251Z,20.13
2023-03-06T14:01:07.896Z,21.63
2023-03-06T14:04:01.680Z,21.08
2023-03-06T14:06:46.942Z,21.42
2023-03-06T14:09:32.019Z,22.45
2023-03-06T14:12:02.784Z,20.63
2023-03-06T14:14:36.360Z,21.60
2023-03-06T14:17:05.247Z,20.40
2023-03-06T14:19:37.507Z,21.88
2023-03-06T14:22:06.106Z,27.35
2023-03-06T14:24:42.503Z,21.52
2023-03-06T14:27:17.302Z,21.02
2023-03-06T14:29:44.689Z,25.45
2023-03-06T14:32:12.459Z,23.67
2023-03-06T14:34:41.215Z,22.60
2023-03-06T14:37:20.321Z,21.42
2023-03-06T14:39:47.153Z,22.50
2023-03-06T14:42:28.574Z,22.38
2023-03-06T14:45:03.687Z,19.65
2023-03-06T14:47:32.646Z,20.42
2023-03-06T14:50:27.956Z,20.67
2023-03-06T14:52:59.965Z,20.63
2023-03-06T14:55:28.679Z,20.00
2023-03-06T14:58:03.282Z,21.98
2023-03-06T15:00:35.814Z,22.00
2023-03-06T15:03:05.571Z,22.25
2023-03-06T15:05:32.751Z,22.40
2023-03-06T15:08:04.549Z,25.83
2023-03-06T15:10:33.541Z,24.95
2023-03-06T15:13:21.686Z,23.00
2023-03-06T15:16:15.798Z,21.25
2023-03-06T15:19:01.375Z,23.38
2023-03-06T15:21:31.438Z,23.23
2023-03-06T15:23:58.273Z,24.00
2023-03-06T15:26:31.631Z,23.23
2023-03-06T15:29:31.045Z,28.63
2023-03-06T15:32:25.475Z,26.42
2023-03-06T15:35:30.242Z,22.20
2023-03-06T15:37:57.606Z,22.90
2023-03-06T15:40:26.714Z,24.90
2023-03-06T15:42:53.462Z,25.48
2023-03-06T15:45:22.379Z,28.25
2023-03-06T15:47:51.097Z,27.48
2023-03-06T15:50:23.724Z,24.17
2023-03-06T15:52:50.427Z,23.55
2023-03-06T15:55:19.754Z,24.75
2023-03-06T15:58:05.014Z,25.38
2023-03-06T16:00:34.402Z,26.20
2023-03-06T16:03:02.342Z,26.17
2023-03-06T16:05:29.370Z,23.63
2023-03-06T16:07:56.465Z,24.50
2023-03-06T16:10:25.873Z,25.42
2023-03-06T16:12:55.795Z,25.92
2023-03-06T16:15:29.289Z,24.55
2023-03-06T16:17:57.008Z,25.85
2023-03-06T16:20:25.717Z,26.42
2023-03-06T16:22:53.964Z,25.70
2023-03-06T16:25:21.716Z,28.77
2023-03-06T16:27:55.586Z,26.30
2023-03-06T16:30:24.382Z,30.38
2023-03-06T16:32:51.035Z,31.90
2023-03-06T16:35:18.694Z,33.47
2023-03-06T16:37:52.224Z,33.78
2023-03-06T16:40:22.648Z,33.88
2023-03-06T16:42:50.332Z,31.75
2023-03-06T16:45:18.312Z,31.45
2023-03-06T16:47:46.388Z,31.73
2023-03-06T16:50:27.514Z,33.50
2023-03-06T16:52:55.638Z,34.58
2023-03-06T16:55:23.803Z,31.98
2023-03-06T16:57:50.746Z,26.30
2023-03-06T17:00:18.818Z,29.88
2023-03-06T17:02:47.620Z,25.10
2023-03-06T17:05:14.540Z,27.48
2023-03-06T17:07:41.566Z,27.15
2023-03-06T17:10:11.067Z,26.75
2023-03-06T17:12:37.753Z,28.02
2023-03-06T17:15:06.127Z,33.47
2023-03-06T17:17:32.981Z,31.17
2023-03-06T17:19:59.846Z,36.40
2023-03-06T17:22:27.544Z,33.40
2023-03-06T17:24:54.469Z,31.08
2023-03-06T17:27:22.381Z,32.60
2023-03-06T17:29:49.004Z,31.58
2023-03-06T17:32:15.809Z,35.75
2023-03-06T17:34:42.837Z,33.60
2023-03-06T17:37:09.508Z,36.60
2023-03-06T17:39:37.657Z,30.45
2023-03-06T17:42:05.643Z,33.95
2023-03-06T17:44:34.123Z,35.35
2023-03-06T17:47:01.470Z,32.97
2023-03-06T17:49:28.238Z,34.03
2023-03-06T17:51:56.790Z,32.50
2023-03-06T17:54:26.217Z,29.50
2023-03-06T17:57:01.119Z,29.83
2023-03-06T17:59:28.320Z,31.05
2023-03-06T18:01:58.879Z,30.15
2023-03-06T18:04:25.737Z,33.03
2023-03-06T18:06:52.476Z,28.40
2023-03-06T18:09:19.383Z,29.15
2023-03-06T18:11:45.971Z,32.70
2023-03-06T18:14:12.581Z,31.02
2023-03-06T18:16:39.236Z,28.65
2023-03-06T18:19:05.905Z,31.25
2023-03-06T18:21:32.558Z,28.15
2023-03-06T18:23:59.309Z,28.38
2023-03-06T18:26:28.212Z,31.05
2023-03-06T18:29:01.642Z,27.88
2023-03-06T18:31:33.761Z,27.93
2023-03-06T18:34:03.709Z,28.10
2023-03-06T18:36:32.077Z,29.75
2023-03-06T18:39:00.893Z,30.85
2023-03-06T18:41:27.562Z,30.70
2023-03-06T18:43:55.905Z,31.40
2023-03-06T18:46:23.387Z,31.02
2023-03-06T18:48:50.393Z,32.20
2023-03-06T18:51:18.050Z,30.58
2023-03-06T18:53:44.875Z,33.00
2023-03-06T18:56:16.880Z,32.53
2023-03-06T18:58:44.529Z,37.15
2023-03-06T19:01:12.208Z,30.75
2023-03-06T19:03:38.950Z,30.77
2023-03-06T19:06:08.094Z,30.70
2023-03-06T19:08:36.093Z,32.45
2023-03-06T19:11:08.012Z,30.45
2023-03-06T19:13:34.816Z,32.88
2023-03-06T19:16:02.030Z,29.85
2023-03-06T19:18:31.060Z,30.05
2023-03-06T19:21:11.447Z,31.20
2023-03-06T19:23:38.205Z,29.50
2023-03-06T19:26:05.326Z,27.67
2023-03-06T19:28:32.665Z,30.67
2023-03-06T19:31:00.486Z,31.33
2023-03-06T19:33:27.179Z,31.45
2023-03-06T19:35:56.231Z,30.52
2023-03-06T19:38:23.039Z,32.17
2023-03-06T19:40:50.716Z,34.28
2023-03-06T19:43:17.491Z,32.08
2023-03-06T19:45:44.874Z,32.05
2023-03-06T19:48:12.656Z,32.90
2023-03-06T19:50:40.513Z,39.53
2023-03-06T19:53:08.288Z,47.05
2023-03-06T19:55:35.054Z,40.80
2023-03-06T19:58:02.118Z,38.03
2023-03-06T20:00:28.942Z,44.25
2023-03-06T20:02:56.241Z,92.28
2023-03-06T20:05:22.984Z,65.85
2023-03-06T20:07:50.179Z,55.75
2023-03-06T20:10:17.591Z,60.25
2023-03-06T20:12:44.546Z,53.65
2023-03-06T20:15:11.427Z,56.22
2023-03-06T20:17:40.747Z,56.10
2023-03-06T20:20:10.842Z,76.18
2023-03-06T20:22:37.720Z,62.83
2023-03-06T20:25:05.244Z,55.42
2023-03-06T20:27:32.944Z,72.25
2023-03-06T20:29:59.790Z,62.65
2023-03-06T20:32:26.955Z,183.32
2023-03-06T20:34:53.564Z,65.22
2023-03-06T20:37:20.126Z,57.05
2023-03-06T20:39:47.002Z,57.25
2023-03-06T20:42:13.639Z,55.70
2023-03-06T20:44:40.297Z,55.45
2023-03-06T20:47:06.897Z,60.42
2023-03-06T20:49:33.532Z,58.13
2023-03-06T20:52:00.164Z,56.95
2023-03-06T20:54:26.788Z,51.47
2023-03-06T20:56:53.417Z,49.00
2023-03-06T20:59:20.216Z,45.13
2023-03-06T21:01:48.149Z,49.72
2023-03-06T21:04:15.517Z,44.35
2023-03-06T21:06:46.744Z,42.92
2023-03-06T21:09:16.279Z,45.88
2023-03-06T21:11:42.939Z,45.17
2023-03-06T21:14:09.800Z,40.63
2023-03-06T21:16:36.574Z,43.40
2023-03-06T21:19:03.851Z,43.78
2023-03-06T21:21:33.506Z,48.00
2023-03-06T21:24:01.106Z,45.45
2023-03-06T21:26:33.938Z,45.03
2023-03-06T21:29:01.712Z,48.10
2023-03-06T21:31:28.920Z,44.33
2023-03-06T21:33:56.438Z,44.80
2023-03-06T21:36:23.831Z,46.38
2023-03-06T21:38:52.376Z,47.78
2023-03-06T21:41:24.945Z,43.80
2023-03-06T21:43:59.252Z,39.22
2023-03-06T21:46:26.864Z,39.08
2023-03-06T21:48:53.840Z,41.30
2023-03-06T21:51:23.778Z,45.25
2023-03-06T21:53:51.173Z,49.90
2023-03-06T21:56:19.357Z,53.00
2023-03-06T21:58:46.063Z,44.00
2023-03-06T22:01:16.266Z,46.97
2023-03-06T22:03:43.119Z,46.33
2023-03-06T22:06:15.374Z,45.25
2023-03-06T22:08:42.745Z,45.08
2023-03-06T22:11:15.021Z,38.67
2023-03-06T22:13:41.864Z,38.70
2023-03-06T22:16:08.888Z,40.00
2023-03-06T22:18:36.240Z,39.95
2023-03-06T22:21:10.202Z,37.78
2023-03-06T22:23:37.131Z,38.33
2023-03-06T22:26:09.417Z,38.47
2023-03-06T22:28:36.365Z,32.17
2023-03-06T22:31:05.372Z,34.10
2023-03-06T22:33:31.998Z,35.25
2023-03-06T22:36:05.492Z,30.77
2023-03-06T22:38:33.858Z,35.13
2023-03-06T22:41:00.887Z,33.92
2023-03-06T22:43:27.748Z,33.47
2023-03-06T22:45:54.522Z,34.00
2023-03-06T22:48:21.300Z,32.03
2023-03-06T22:50:47.943Z,31.88
2023-03-06T22:53:14.568Z,33.58
2023-03-06T22:55:41.463Z,32.28
2023-03-06T22:58:08.185Z,28.75
2023-03-06T23:00:35.232Z,33.63
2023-03-06T23:03:02.220Z,34.25
2023-03-06T23:05:29.568Z,31.58
2023-03-06T23:07:56.360Z,28.60
2023-03-06T23:10:23.087Z,29.73
2023-03-06T23:12:49.691Z,29.55
2023-03-06T23:15:16.360Z,29.52
2023-03-06T23:17:43.041Z,28.50
2023-03-06T23:20:10.412Z,30.13
2023-03-06T23:22:37.340Z,31.23
2023-03-06T23:25:04.551Z,26.73
2023-03-06T23:27:31.366Z,25.15
2023-03-06T23:29:59.231Z,26.73
2023-03-06T23:32:26.199Z,24.13
2023-03-06T23:34:52.859Z,31.25
2023-03-06T23:37:19.544Z,27.60
2023-03-06T23:39:46.146Z,27.52
2023-03-06T23:42:12.744Z,26.05
2023-03-06T23:44:39.601Z,23.88
2023-03-06T23:47:06.236Z,28.88
2023-03-06T23:49:33.037Z,26.65
2023-03-06T23:51:59.721Z,25.55
2023-03-06T23:54:26.454Z,26.67
2023-03-06T23:56:53.070Z,25.77
2023-03-06T23:59:19.702Z,25.65
